Time;durP1;ratioP1;P1;durP2;ratioP2;P2;SDS_P1;SDS_P2;PMS_P1;PMS_P2;Temp;Humidity;BMP_temperature;BMP_pressure;BME280_temperature;BME280_humidity;BME280_pressure;Samples;Min_cycle;Max_cycle;Signal;HPM_P1;HPM_P2
2021/11/04 00:00:10;;;;;;;;;;;;;;;5.99;82.58;95362.28;30001;965;1894;-58
2021/11/04 00:00:43;;;;;;;;;;;;;;;5.99;82.75;95371.16;30001;983;1876;-61
2021/11/04 00:01:14;;;;;;;;;;;;;;;5.99;82.88;95363.09;30001;983;1876;-62
2021/11/04 00:01:45;;;;;;;;;;;;;;;5.98;82.80;95369.56;30001;983;1858;-62
2021/11/04 00:02:16;;;;;;;;;;;;;;;5.99;82.82;95367.69;30001;970;1880;-63
2021/11/04 00:02:47;;;;;;;;;;;;;;;5.99;82.87;95373.87;30001;982;1871;-61
2021/11/04 00:03:17;;;;;;;;;;;;;;;5.98;82.97;95360.69;30001;982;1876;-62
2021/11/04 00:03:48;;;;;;;;;;;;;;;5.97;83.03;95364.50;30001;984;1876;-62
2021/11/04 00:04:24;;;;;;;;;;;;;;;5.96;82.86;95368.28;30001;982;1876;-63
2021/11/04 00:04:55;;;;;;;;;;;;;;;5.95;83.01;95367.47;30001;983;1875;-62
2021/11/04 00:05:26;;;;;;;;;;;;;;;5.95;83.14;95367.47;30001;985;1871;-63
2021/11/04 00:05:57;;;;;;;;;;;;;;;5.95;82.91;95367.47;30001;983;1875;-62
2021/11/04 00:06:28;;;;;;;;;;;;;;;5.95;82.86;95367.47;30001;983;1875;-62
2021/11/04 00:06:59;;;;;;;;;;;;;;;5.95;83.25;95367.47;30001;983;1875;-62
2021/11/04 00:07:31;;;;;;;;;;;;;;;5.95;83.11;95367.47;30001;983;1858;-57
2021/11/04 00:08:04;;;;;;;;;;;;;;;5.97;83.33;95369.88;30001;983;1871;-62
2021/11/04 00:08:35;;;;;;;;;;;;;;;5.97;83.05;95365.28;30001;983;1876;-62
2021/11/04 00:09:06;;;;;;;;;;;;;;;5.97;83.29;95367.97;30001;982;1876;-63
2021/11/04 00:09:37;;;;;;;;;;;;;;;5.97;82.88;95364.50;30001;982;1876;-62
2021/11/04 00:10:09;;;;;;;;;;;;;;;5.97;82.91;95365.28;30001;982;1876;-62
2021/11/04 00:10:40;;;;;;;;;;;;;;;5.97;82.84;95359.09;30001;982;1876;-61
2021/11/04 00:11:11;;;;;;;;;;;;;;;5.96;82.99;95363.69;30001;982;1876;-61
2021/11/04 00:11:42;;;;;;;;;;;;;;;5.96;82.87;95354.81;30001;982;1876;-61
2021/11/04 00:12:12;;;;;;;;;;;;;;;5.95;82.47;95354.03;30001;982;1746;-62
2021/11/04 00:12:43;;;;;;;;;;;;;;;5.97;82.59;95353.72;30001;983;1871;-62
2021/11/04 00:13:15;;;;;;;;;;;;;;;5.96;82.65;95344.84;30001;983;1875;-61
2021/11/04 00:13:45;;;;;;;;;;;;;;;5.97;83.04;95348.34;30001;983;1875;-61
2021/11/04 00:14:17;;;;;;;;;;;;;;;5.98;82.91;95344.53;30001;983;1875;-61
2021/11/04 00:14:51;;;;;;;;;;;;;;;5.98;83.01;95331.88;30001;983;1858;-62
2021/11/04 00:15:24;;;;;;;;;;;;;;;6.00;83.14;95353.13;30001;983;1871;-62
2021/11/04 00:15:55;;;;;;;;;;;;;;;6.00;82.82;95342.34;30001;983;1876;-62
2021/11/04 00:16:26;;;;;;;;;;;;;;;6.00;82.53;95343.16;30001;983;1876;-62
2021/11/04 00:16:57;;;;;;;;;;;;;;;6.00;82.57;95337.75;30001;982;1876;-62
2021/11/04 00:17:28;;;;;;;;;;;;;;;6.00;82.79;95340.47;30001;964;1894;-63
2021/11/04 00:17:59;;;;;;;;;;;;;;;6.00;82.53;95337.75;30001;982;1876;-61
2021/11/04 00:18:30;;;;;;;;;;;;;;;6.01;82.95;95333.97;30001;982;1876;-62
2021/11/04 00:19:01;;;;;;;;;;;;;;;6.02;82.76;95332.09;30001;982;1876;-61
2021/11/04 00:19:32;;;;;;;;;;;;;;;6.05;82.79;95334.97;30001;982;1859;-62
2021/11/04 00:20:04;;;;;;;;;;;;;;;6.08;82.48;95335.47;30001;983;1871;-62
2021/11/04 00:20:35;;;;;;;;;;;;;;;6.07;82.23;95331.19;30001;983;1875;-63
2021/11/04 00:21:06;;;;;;;;;;;;;;;6.07;82.29;95331.19;30001;987;1778;-62
2021/11/04 00:21:37;;;;;;;;;;;;;;;6.07;82.46;95325.78;30001;983;1875;-62
2021/11/04 00:22:08;;;;;;;;;;;;;;;6.06;82.37;95319.59;30001;983;1874;-62
2021/11/04 00:22:40;;;;;;;;;;;;;;;6.07;82.23;95320.41;30001;983;1874;-62
2021/11/04 00:23:10;;;;;;;;;;;;;;;6.05;82.54;95321.50;30001;983;1857;-62
2021/11/04 00:23:41;;;;;;;;;;;;;;;6.03;82.68;95325.59;30001;983;1854;-62
2021/11/04 00:24:12;;;;;;;;;;;;;;;6.09;82.40;95323.59;30001;982;1876;-61
2021/11/04 00:24:47;;;;;;;;;;;;;;;6.11;81.95;95313.31;30001;982;1858;-63
2021/11/04 00:25:18;;;;;;;;;;;;;;;6.13;81.86;95321.91;30001;982;1872;-62
2021/11/04 00:25:49;;;;;;;;;;;;;;;6.14;81.95;95320.81;30001;982;1876;-62
2021/11/04 00:26:20;;;;;;;;;;;;;;;6.14;81.28;95323.50;30001;982;1876;-62
2021/11/04 00:26:51;;;;;;;;;;;;;;;6.15;81.61;95317.00;30001;982;1876;-62
2021/11/04 00:27:22;;;;;;;;;;;;;;;6.14;81.67;95320.81;30001;982;1876;-61
2021/11/04 00:27:55;;;;;;;;;;;;;;;6.15;81.93;95322.41;30001;983;1875;-61
2021/11/04 00:28:26;;;;;;;;;;;;;;;6.16;81.79;95326.69;30001;983;1875;-57
2021/11/04 00:28:57;;;;;;;;;;;;;;;6.14;81.69;95320.81;30001;983;1875;-61
2021/11/04 00:29:28;;;;;;;;;;;;;;;6.16;81.33;95321.28;30001;983;1875;-62
2021/11/04 00:29:59;;;;;;;;;;;;;;;6.17;81.26;95320.19;30001;983;1858;-61
2021/11/04 00:30:31;;;;;;;;;;;;;;;6.17;81.25;95314.81;30001;983;1871;-63
2021/11/04 00:31:01;;;;;;;;;;;;;;;6.17;81.42;95320.19;30001;983;1876;-62
2021/11/04 00:31:33;;;;;;;;;;;;;;;6.19;81.15;95318.00;30001;983;1876;-62
2021/11/04 00:32:05;;;;;;;;;;;;;;;6.19;80.48;95318.00;30001;982;1876;-57
2021/11/04 00:32:36;;;;;;;;;;;;;;;6.18;80.50;95311.81;30001;982;1876;-62
2021/11/04 00:33:07;;;;;;;;;;;;;;;6.16;80.42;95314.00;30001;982;1876;-60
2021/11/04 00:33:38;;;;;;;;;;;;;;;6.18;80.63;95311.81;30001;982;1876;-61
2021/11/04 00:34:09;;;;;;;;;;;;;;;6.19;80.41;95312.63;30001;982;1876;-60
2021/11/04 00:34:40;;;;;;;;;;;;;;;6.19;80.62;95301.84;30001;982;1875;-61
2021/11/04 00:35:11;;;;;;;;;;;;;;;6.19;80.68;95304.53;30001;983;1857;-61
2021/11/04 00:35:42;;;;;;;;;;;;;;;6.22;80.57;95303.94;30001;983;1870;-62
2021/11/04 00:36:13;;;;;;;;;;;;;;;6.23;80.22;95294.75;30001;983;1875;-62
2021/11/04 00:36:44;;;;;;;;;;;;;;;6.22;80.02;95301.25;30001;983;1875;-62
2021/11/04 00:37:18;;;;;;;;;;;;;;;6.20;80.34;95298.03;30001;983;1876;-61
2021/11/04 00:37:49;;;;;;;;;;;;;;;6.19;80.47;95307.22;30001;983;1876;-61
2021/11/04 00:38:20;;;;;;;;;;;;;;;6.19;80.36;95302.62;30001;983;1876;-56
2021/11/04 00:38:50;;;;;;;;;;;;;;;6.17;80.36;95302.16;30001;983;1876;-56
2021/11/04 00:39:22;;;;;;;;;;;;;;;6.16;79.90;95307.84;30001;982;1876;-62
2021/11/04 00:39:54;;;;;;;;;;;;;;;6.11;80.25;95305.25;30001;982;1876;-61
2021/11/04 00:40:25;;;;;;;;;;;;;;;6.11;80.53;95299.84;30001;982;1858;-63
2021/11/04 00:40:57;;;;;;;;;;;;;;;6.10;80.39;95306.34;30001;982;1872;-61
2021/11/04 00:41:28;;;;;;;;;;;;;;;6.09;80.82;95302.06;30001;982;1876;-61
2021/11/04 00:41:58;;;;;;;;;;;;;;;6.09;80.99;95310.12;30001;983;1875;-62
2021/11/04 00:42:29;;;;;;;;;;;;;;;6.08;81.04;95305.84;30001;983;1875;-63
2021/11/04 00:43:00;;;;;;;;;;;;;;;6.08;80.86;95311.22;30001;983;1875;-62
2021/11/04 00:43:31;;;;;;;;;;;;;;;6.07;81.12;95317.72;30001;983;1875;-61
2021/11/04 00:44:02;;;;;;;;;;;;;;;6.10;81.17;95314.41;30001;983;1875;-62
2021/11/04 00:44:33;;;;;;;;;;;;;;;6.10;80.93;95319.81;30001;983;1876;-62
2021/11/04 00:45:05;;;;;;;;;;;;;;;6.09;80.76;95320.91;30001;983;1876;-62
2021/11/04 00:45:35;;;;;;;;;;;;;;;6.09;81.04;95323.59;30001;983;1858;-61
2021/11/04 00:46:06;;;;;;;;;;;;;;;6.10;81.11;95330.56;30001;983;1871;-62
2021/11/04 00:46:37;;;;;;;;;;;;;;;6.10;81.35;95328.69;30001;983;1858;-61
2021/11/04 00:47:08;;;;;;;;;;;;;;;6.08;81.06;95332.78;30001;982;1871;-62
2021/11/04 00:47:39;;;;;;;;;;;;;;;6.07;81.19;95331.19;30001;982;1876;-61
2021/11/04 00:48:10;;;;;;;;;;;;;;;6.05;81.36;95329.59;30001;982;1876;-61
2021/11/04 00:48:41;;;;;;;;;;;;;;;6.04;81.60;95333.38;30001;982;1876;-62
2021/11/04 00:49:12;;;;;;;;;;;;;;;6.02;81.51;95345.53;30001;982;1876;-61
2021/11/04 00:49:43;;;;;;;;;;;;;;;6.01;81.49;95336.66;30001;983;1858;-62
2021/11/04 00:50:14;;;;;;;;;;;;;;;6.01;81.91;95339.38;30001;983;1871;-62
2021/11/04 00:50:45;;;;;;;;;;;;;;;5.98;81.96;95345.34;30001;983;1875;-58
2021/11/04 00:51:16;;;;;;;;;;;;;;;5.96;82.12;95350.22;30001;983;1875;-62
2021/11/04 00:51:47;;;;;;;;;;;;;;;5.97;81.95;95349.13;30001;983;1875;-63
2021/11/04 00:52:17;;;;;;;;;;;;;;;5.95;82.19;95345.94;30001;983;1782;-62
2021/11/04 00:52:48;;;;;;;;;;;;;;;5.96;81.93;95352.94;30001;983;1876;-60
2021/11/04 00:53:19;;;;;;;;;;;;;;;5.96;82.38;95349.44;30001;983;1876;-63
2021/11/04 00:53:50;;;;;;;;;;;;;;;5.94;82.19;95355.12;30001;983;1876;-61
2021/11/04 00:54:24;;;;;;;;;;;;;;;5.94;82.05;95355.12;30001;982;1876;-62
2021/11/04 00:54:55;;;;;;;;;;;;;;;5.93;82.02;95358.91;30001;982;1858;-63
2021/11/04 00:55:26;;;;;;;;;;;;;;;5.96;82.12;95358.31;30001;982;1872;-62
2021/11/04 00:55:58;;;;;;;;;;;;;;;5.96;81.90;95358.31;30001;982;1876;-62
2021/11/04 00:56:29;;;;;;;;;;;;;;;5.96;81.98;95357.50;30001;982;1858;-62
2021/11/04 00:56:59;;;;;;;;;;;;;;;5.96;82.17;95368.28;30001;983;1871;-61
2021/11/04 00:57:30;;;;;;;;;;;;;;;5.97;82.20;95359.09;30001;983;1817;-61
2021/11/04 00:58:01;;;;;;;;;;;;;;;5.95;82.27;95359.41;30001;983;1875;-62
2021/11/04 00:58:32;;;;;;;;;;;;;;;5.96;82.13;95358.31;30001;983;1875;-62
2021/11/04 00:59:03;;;;;;;;;;;;;;;5.97;82.43;95364.50;30001;983;1875;-62
2021/11/04 00:59:34;;;;;;;;;;;;;;;5.98;82.36;95364.19;30001;983;1876;-62
2021/11/04 01:00:06;;;;;;;;;;;;;;;5.96;82.42;95366.37;30001;983;1876;-62
2021/11/04 01:00:37;;;;;;;;;;;;;;;6.01;82.30;95365.50;30001;983;1876;-62
2021/11/04 01:01:08;;;;;;;;;;;;;;;6.00;82.42;95375.47;30001;983;1876;-61
2021/11/04 01:01:39;;;;;;;;;;;;;;;6.00;82.23;95367.37;30001;983;1858;-57
2021/11/04 01:02:10;;;;;;;;;;;;;;;6.00;82.03;95370.06;30001;982;1854;-61
2021/11/04 01:02:41;;;;;;;;;;;;;;;6.02;81.85;95375.16;30001;980;1858;-60
2021/11/04 01:03:12;;;;;;;;;;;;;;;6.02;81.85;95365.19;30001;982;1871;-62
2021/11/04 01:03:42;;;;;;;;;;;;;;;6.00;81.75;95369.28;30001;982;1876;-56
2021/11/04 01:04:13;;;;;;;;;;;;;;;6.00;81.80;95364.69;30001;982;1876;-62
2021/11/04 01:04:44;;;;;;;;;;;;;;;6.01;81.74;95371.66;30001;957;1901;-62
2021/11/04 01:05:17;;;;;;;;;;;;;;;6.04;81.40;95370.28;30001;975;1883;-61
2021/11/04 01:05:48;;;;;;;;;;;;;;;6.09;81.11;95366.69;30001;983;1858;-61
2021/11/04 01:06:20;;;;;;;;;;;;;;;6.12;81.22;95366.87;30001;983;1871;-62
2021/11/04 01:06:51;;;;;;;;;;;;;;;6.13;80.97;95368.47;30001;983;1875;-63
2021/11/04 01:07:22;;;;;;;;;;;;;;;6.10;80.69;95373.66;30001;983;1858;-63
2021/11/04 01:07:54;;;;;;;;;;;;;;;6.08;80.62;95371.28;30001;983;1871;-62
2021/11/04 01:08:25;;;;;;;;;;;;;;;6.07;80.74;95369.69;30001;983;1876;-62
2021/11/04 01:08:56;;;;;;;;;;;;;;;6.07;80.77;95376.94;30001;983;1876;-62
2021/11/04 01:09:27;;;;;;;;;;;;;;;6.05;81.36;95372.66;30001;983;1876;-62
2021/11/04 01:09:58;;;;;;;;;;;;;;;6.03;81.18;95374.84;30001;982;1858;-62
2021/11/04 01:10:29;;;;;;;;;;;;;;;6.01;81.65;95370.88;30001;982;1872;-61
2021/11/04 01:10:59;;;;;;;;;;;;;;;6.00;81.75;95372.75;30001;982;1876;-62
2021/11/04 01:11:30;;;;;;;;;;;;;;;6.00;81.72;95374.66;30001;982;1876;-57
2021/11/04 01:12:01;;;;;;;;;;;;;;;5.99;82.03;95376.56;30001;983;1875;-62
2021/11/04 01:12:32;;;;;;;;;;;;;;;5.99;81.93;95373.87;30001;983;1875;-61
2021/11/04 01:13:04;;;;;;;;;;;;;;;5.99;82.02;95373.06;30001;983;1875;-62
2021/11/04 01:13:36;;;;;;;;;;;;;;;5.99;82.04;95373.06;30001;983;1875;-64
2021/11/04 01:14:07;;;;;;;;;;;;;;;5.99;82.40;95378.44;30001;983;1875;-62
2021/11/04 01:14:38;;;;;;;;;;;;;;;5.97;82.15;95373.38;30001;983;1876;-62
2021/11/04 01:15:09;;;;;;;;;;;;;;;5.97;82.10;95370.66;30001;983;1858;-62
2021/11/04 01:15:40;;;;;;;;;;;;;;;5.97;82.25;95367.97;30001;983;1871;-61
2021/11/04 01:16:12;;;;;;;;;;;;;;;5.98;81.97;95372.28;30001;982;1858;-60
2021/11/04 01:16:43;;;;;;;;;;;;;;;5.98;82.03;95372.28;30001;982;1871;-62
2021/11/04 01:17:14;;;;;;;;;;;;;;;6.00;82.05;95374.66;30001;982;1876;-61
2021/11/04 01:17:45;;;;;;;;;;;;;;;5.99;82.14;95365.78;30001;982;1876;-62
2021/11/04 01:18:16;;;;;;;;;;;;;;;5.99;82.12;95367.69;30001;982;1876;-62
2021/11/04 01:18:47;;;;;;;;;;;;;;;5.99;82.14;95370.38;30001;978;1891;-61
2021/11/04 01:19:18;;;;;;;;;;;;;;;5.97;82.25;95370.66;30001;982;1859;-61
2021/11/04 01:19:49;;;;;;;;;;;;;;;5.96;82.32;95373.66;30001;983;1871;-61
2021/11/04 01:20:21;;;;;;;;;;;;;;;5.93;82.33;95369.69;30001;983;1858;-61
2021/11/04 01:20:53;;;;;;;;;;;;;;;5.94;82.57;95371.28;30001;983;1871;-62
2021/11/04 01:21:23;;;;;;;;;;;;;;;5.95;82.48;95364.78;30001;983;1875;-61
2021/11/04 01:21:55;;;;;;;;;;;;;;;5.95;82.53;95372.88;30001;983;1875;-63
2021/11/04 01:22:26;;;;;;;;;;;;;;;5.96;82.62;95373.66;30001;983;1876;-61
2021/11/04 01:22:57;;;;;;;;;;;;;;;5.97;82.77;95370.66;30001;983;1858;-61
2021/11/04 01:23:27;;;;;;;;;;;;;;;5.97;82.64;95376.06;30001;983;1871;-62
2021/11/04 01:23:58;;;;;;;;;;;;;;;5.96;82.59;95358.31;30001;982;1876;-62
2021/11/04 01:24:29;;;;;;;;;;;;;;;5.94;82.79;95365.88;30001;982;1876;-62
2021/11/04 01:25:00;;;;;;;;;;;;;;;5.94;82.80;95360.50;30001;982;1858;-61
2021/11/04 01:25:31;;;;;;;;;;;;;;;5.93;83.20;95358.91;30001;982;1872;-62
2021/11/04 01:26:02;;;;;;;;;;;;;;;5.94;83.14;95370.47;30001;982;1853;-62
2021/11/04 01:26:34;;;;;;;;;;;;;;;5.92;82.90;95368.06;30001;982;1876;-62
2021/11/04 01:27:05;;;;;;;;;;;;;;;5.93;83.04;95364.28;30001;983;1875;-61
2021/11/04 01:27:36;;;;;;;;;;;;;;;5.93;83.25;95361.59;30001;983;1875;-62
2021/11/04 01:28:10;;;;;;;;;;;;;;;5.91;83.29;95363.78;30001;983;1844;-62
2021/11/04 01:28:40;;;;;;;;;;;;;;;5.90;82.97;95370.28;30001;983;1835;-62
2021/11/04 01:29:11;;;;;;;;;;;;;;;5.88;83.37;95361.69;30001;983;1870;-61
2021/11/04 01:29:42;;;;;;;;;;;;;;;5.88;83.26;95350.94;30001;983;1876;-62
2021/11/04 01:30:13;;;;;;;;;;;;;;;5.87;83.19;95360.09;30001;983;1876;-63
2021/11/04 01:30:44;;;;;;;;;;;;;;;5.87;83.09;95360.09;30001;983;1858;-63
2021/11/04 01:31:15;;;;;;;;;;;;;;;5.87;83.15;95354.72;30001;983;1871;-62
2021/11/04 01:31:46;;;;;;;;;;;;;;;5.87;83.01;95349.34;30001;982;1876;-61
2021/11/04 01:32:16;;;;;;;;;;;;;;;5.88;83.11;95350.13;30001;982;1876;-61
2021/11/04 01:32:47;;;;;;;;;;;;;;;5.87;82.85;95348.53;30001;982;1858;-61
2021/11/04 01:33:18;;;;;;;;;;;;;;;5.88;83.14;95355.50;30001;982;1872;-63
2021/11/04 01:33:49;;;;;;;;;;;;;;;5.86;82.85;95353.13;30001;982;1859;-62
2021/11/04 01:34:20;;;;;;;;;;;;;;;5.86;83.46;95353.13;30001;982;1872;-62
2021/11/04 01:34:51;;;;;;;;;;;;;;;5.85;83.22;95351.53;30001;983;1875;-62
2021/11/04 01:35:22;;;;;;;;;;;;;;;5.85;83.38;95351.53;30001;983;1875;-62
2021/11/04 01:35:53;;;;;;;;;;;;;;;5.85;83.14;95350.72;30001;983;1875;-62
2021/11/04 01:36:24;;;;;;;;;;;;;;;5.86;83.45;95345.03;30001;983;1875;-62
2021/11/04 01:36:55;;;;;;;;;;;;;;;5.85;83.38;95340.75;30001;983;1875;-63
2021/11/04 01:37:26;;;;;;;;;;;;;;;5.86;83.63;95345.03;30001;983;1876;-61
2021/11/04 01:37:58;;;;;;;;;;;;;;;5.85;83.47;95340.75;30001;983;1876;-63
2021/11/04 01:38:29;;;;;;;;;;;;;;;5.86;83.67;95342.34;30001;983;1876;-62
2021/11/04 01:39:00;;;;;;;;;;;;;;;5.86;83.51;95342.34;30001;982;1858;-60
2021/11/04 01:39:31;;;;;;;;;;;;;;;5.86;83.67;95345.03;30001;982;1871;-62
2021/11/04 01:40:03;;;;;;;;;;;;;;;5.87;83.44;95341.25;30001;982;1876;-62
2021/11/04 01:40:34;;;;;;;;;;;;;;;5.89;83.38;95341.00;30001;982;1876;-63
2021/11/04 01:41:06;;;;;;;;;;;;;;;5.89;83.26;95335.59;30001;982;1876;-61
2021/11/04 01:41:37;;;;;;;;;;;;;;;5.89;83.10;95333.69;30001;982;1876;-62
2021/11/04 01:42:08;;;;;;;;;;;;;;;5.90;83.12;95337.16;30001;982;1876;-61
2021/11/04 01:42:39;;;;;;;;;;;;;;;5.89;83.07;95336.37;30001;983;1875;-61
2021/11/04 01:43:11;;;;;;;;;;;;;;;5.89;83.20;95336.37;30001;983;1858;-62
2021/11/04 01:43:43;;;;;;;;;;;;;;;5.90;83.27;95337.16;30001;983;1871;-61
2021/11/04 01:44:14;;;;;;;;;;;;;;;5.89;83.07;95336.37;30001;983;1876;-63
2021/11/04 01:44:45;;;;;;;;;;;;;;;5.89;82.52;95335.59;30001;983;1875;-63
2021/11/04 01:45:16;;;;;;;;;;;;;;;5.85;82.30;95335.38;30001;983;1876;-62
2021/11/04 01:45:49;;;;;;;;;;;;;;;5.85;82.54;95327.31;30001;983;1876;-63
2021/11/04 01:46:21;;;;;;;;;;;;;;;5.85;82.36;95335.38;30001;983;1876;-58
2021/11/04 01:46:52;;;;;;;;;;;;;;;5.86;82.62;95328.91;30001;982;1876;-63
2021/11/04 01:47:23;;;;;;;;;;;;;;;5.85;82.69;95330.00;30001;982;1876;-63
2021/11/04 01:47:54;;;;;;;;;;;;;;;5.86;82.78;95326.19;30001;982;1876;-63
2021/11/04 01:48:25;;;;;;;;;;;;;;;5.86;82.91;95330.78;30001;982;1859;-63
2021/11/04 01:48:55;;;;;;;;;;;;;;;5.84;83.15;95328.41;30001;983;1871;-63
2021/11/04 01:49:26;;;;;;;;;;;;;;;5.85;83.36;95326.50;30001;983;1875;-63
2021/11/04 01:49:58;;;;;;;;;;;;;;;5.85;83.97;95330.00;30001;983;1875;-64
2021/11/04 01:50:29;;;;;;;;;;;;;;;5.83;83.91;95320.63;30001;983;1875;-63
2021/11/04 01:51:00;;;;;;;;;;;;;;;5.82;83.82;95324.41;30001;983;1875;-62
2021/11/04 01:51:31;;;;;;;;;;;;;;;5.81;83.80;95331.69;30001;983;1858;-62
2021/11/04 01:52:02;;;;;;;;;;;;;;;5.81;83.76;95329.00;30001;983;1871;-62
2021/11/04 01:52:33;;;;;;;;;;;;;;;5.81;83.68;95331.69;30001;983;1876;-63
2021/11/04 01:53:03;;;;;;;;;;;;;;;5.82;83.92;95330.59;30001;983;1778;-62
2021/11/04 01:53:34;;;;;;;;;;;;;;;5.80;83.24;95327.41;30001;983;1876;-63
2021/11/04 01:54:05;;;;;;;;;;;;;;;5.80;83.43;95331.97;30001;982;1876;-62
2021/11/04 01:54:36;;;;;;;;;;;;;;;5.79;83.41;95331.19;30001;982;1876;-62
2021/11/04 01:55:12;;;;;;;;;;;;;;;5.81;83.40;95337.06;30001;982;1876;-63
2021/11/04 01:55:42;;;;;;;;;;;;;;;5.81;83.34;95331.69;30001;982;1876;-62
2021/11/04 01:56:13;;;;;;;;;;;;;;;5.79;83.26;95331.19;30001;982;1876;-64
2021/11/04 01:56:44;;;;;;;;;;;;;;;5.78;83.34;95329.59;30001;983;1858;-62
2021/11/04 01:57:15;;;;;;;;;;;;;;;5.77;83.18;95328.00;30001;983;1871;-63
2021/11/04 01:57:46;;;;;;;;;;;;;;;5.80;83.38;95331.97;30001;985;1871;-62
2021/11/04 01:58:17;;;;;;;;;;;;;;;5.80;83.44;95324.72;30001;983;1875;-63
2021/11/04 01:58:48;;;;;;;;;;;;;;;5.81;83.36;95317.44;30001;983;1875;-60
2021/11/04 01:59:19;;;;;;;;;;;;;;;5.81;83.53;95318.22;30001;983;1876;-62
2021/11/04 01:59:50;;;;;;;;;;;;;;;5.80;83.32;95318.53;30001;983;1876;-62
2021/11/04 02:00:22;;;;;;;;;;;;;;;5.79;83.44;95320.41;30001;983;1876;-61
2021/11/04 02:00:54;;;;;;;;;;;;;;;5.78;83.22;95320.72;30001;983;1876;-63
2021/11/04 02:01:25;;;;;;;;;;;;;;;5.77;83.40;95325.31;30001;983;1858;-62
2021/11/04 02:02:14;;;;;;;;;;;;;;;5.77;83.39;95319.94;30001;982;1871;-61
2021/11/04 02:03:16;;;;;;;;;;;;;;;5.78;83.62;95332.28;30001;982;1842;-62
2021/11/04 02:04:05;;;;;;;;;;;;;;;5.76;83.69;95337.16;30001;982;1872;-60
2021/11/04 02:04:44;;;;;;;;;;;;;;;5.73;83.82;95338.56;30001;983;1866;-60
2021/11/04 02:05:25;;;;;;;;;;;;;;;5.74;83.76;95344.75;30001;983;1875;-63
2021/11/04 02:06:20;;;;;;;;;;;;;;;5.76;84.01;95337.16;30001;983;1875;-62
2021/11/04 02:07:02;;;;;;;;;;;;;;;5.76;83.93;95345.25;30001;983;1858;-62
2021/11/04 02:07:40;;;;;;;;;;;;;;;5.75;84.00;95340.94;30001;983;1871;-61
2021/11/04 02:08:18;;;;;;;;;;;;;;;5.76;83.81;95342.56;30001;983;1876;-62
2021/11/04 02:09:12;;;;;;;;;;;;;;;5.77;83.72;95344.16;30001;983;1876;-65
2021/11/04 02:09:51;;;;;;;;;;;;;;;5.78;83.66;95351.13;30001;982;1871;-61
2021/11/04 02:10:31;;;;;;;;;;;;;;;5.76;83.78;95347.12;30001;982;1876;-57
2021/11/04 02:11:16;;;;;;;;;;;;;;;5.72;83.96;95345.03;30001;982;1876;-62
2021/11/04 02:11:51;;;;;;;;;;;;;;;5.75;83.95;95340.94;30001;983;1858;-62
2021/11/04 02:12:42;;;;;;;;;;;;;;;5.76;83.79;95353.31;30001;983;1871;-61
2021/11/04 02:13:18;;;;;;;;;;;;;;;5.75;83.94;95343.66;30001;983;1871;-63
2021/11/04 02:13:58;;;;;;;;;;;;;;;5.74;83.90;95347.44;30001;983;1875;-62
2021/11/04 02:14:31;;;;;;;;;;;;;;;5.72;83.93;95346.94;30001;983;1876;-62
2021/11/04 02:15:03;;;;;;;;;;;;;;;5.71;84.09;95350.72;30001;983;1876;-57
2021/11/04 02:15:36;;;;;;;;;;;;;;;5.70;84.13;95347.22;30001;983;1876;-62
2021/11/04 02:16:07;;;;;;;;;;;;;;;5.71;84.10;95353.41;30001;983;1876;-63
2021/11/04 02:16:39;;;;;;;;;;;;;;;5.71;84.65;95350.72;30001;982;1876;-62
2021/11/04 02:17:10;;;;;;;;;;;;;;;5.69;84.67;95359.09;30001;982;1858;-61
2021/11/04 02:17:42;;;;;;;;;;;;;;;5.70;84.67;95354.50;30001;982;1872;-63
2021/11/04 02:18:15;;;;;;;;;;;;;;;5.69;84.58;95358.28;30001;982;1876;-63
2021/11/04 02:18:47;;;;;;;;;;;;;;;5.69;84.70;95363.69;30001;982;1876;-62
2021/11/04 02:19:42;;;;;;;;;;;;;;;5.70;84.69;95365.28;30001;983;1875;-57
2021/11/04 02:20:20;;;;;;;;;;;;;;;5.70;84.71;95359.87;30001;983;1858;-62
2021/11/04 02:21:12;;;;;;;;;;;;;;;5.68;85.06;95367.47;30001;983;1871;-62
2021/11/04 02:21:55;;;;;;;;;;;;;;;5.65;85.53;95368.06;30001;983;1876;-62
2021/11/04 02:22:35;;;;;;;;;;;;;;;5.62;86.22;95369.44;30001;983;1876;-63
2021/11/04 02:23:20;;;;;;;;;;;;;;;5.62;86.79;95379.41;30001;983;1876;-64
2021/11/04 02:23:56;;;;;;;;;;;;;;;5.61;86.79;95369.75;30001;982;1876;-63
2021/11/04 02:24:47;;;;;;;;;;;;;;;5.59;86.53;95370.03;30001;982;1876;-63
2021/11/04 02:25:20;;;;;;;;;;;;;;;5.59;86.88;95371.94;30001;982;1854;-61
2021/11/04 02:25:52;;;;;;;;;;;;;;;5.58;86.40;95364.94;30001;982;1871;-63
2021/11/04 02:26:23;;;;;;;;;;;;;;;5.56;86.43;95367.94;30001;982;1876;-64
2021/11/04 02:26:54;;;;;;;;;;;;;;;5.55;86.36;95358.28;30001;983;1875;-63
2021/11/04 02:27:26;;;;;;;;;;;;;;;5.55;86.38;95369.03;30001;983;1875;-62
2021/11/04 02:28:02;;;;;;;;;;;;;;;5.56;86.45;95375.22;30001;983;1875;-63
2021/11/04 02:28:34;;;;;;;;;;;;;;;5.56;86.67;95370.62;30001;983;1858;-63
2021/11/04 02:29:06;;;;;;;;;;;;;;;5.55;86.54;95371.72;30001;983;1871;-61
2021/11/04 02:29:38;;;;;;;;;;;;;;;5.53;86.89;95375.84;30001;983;1876;-63
2021/11/04 02:30:11;;;;;;;;;;;;;;;5.51;86.84;95380.72;30001;983;1858;-63
2021/11/04 02:30:43;;;;;;;;;;;;;;;5.50;86.89;95387.19;30001;983;1871;-64
2021/11/04 02:31:14;;;;;;;;;;;;;;;5.49;86.91;95380.22;30001;982;1876;-65
2021/11/04 02:31:45;;;;;;;;;;;;;;;5.49;86.98;95380.22;30001;982;1876;-65
2021/11/04 02:32:18;;;;;;;;;;;;;;;5.49;86.96;95385.59;30001;982;1876;-64
2021/11/04 02:32:50;;;;;;;;;;;;;;;5.48;87.02;95378.62;30001;982;1876;-65
2021/11/04 02:33:22;;;;;;;;;;;;;;;5.47;87.57;95388.59;30001;982;1876;-64
2021/11/04 02:33:54;;;;;;;;;;;;;;;5.45;87.79;95379.22;30001;982;1876;-66
2021/11/04 02:34:28;;;;;;;;;;;;;;;5.43;87.61;95382.19;30001;983;1875;-63
2021/11/04 02:34:59;;;;;;;;;;;;;;;5.46;87.80;95380.81;30001;983;1858;-65
2021/11/04 02:35:30;;;;;;;;;;;;;;;5.47;87.97;95385.09;30001;983;1871;-71
2021/11/04 02:36:03;;;;;;;;;;;;;;;5.47;87.77;95377.03;30001;983;1875;-65
2021/11/04 02:36:34;;;;;;;;;;;;;;;5.45;87.64;95380.00;30001;983;1875;-66
2021/11/04 02:37:07;;;;;;;;;;;;;;;5.44;87.44;95377.62;30001;983;1876;-66
2021/11/04 02:37:38;;;;;;;;;;;;;;;5.41;87.87;95386.28;30001;983;1876;-70
2021/11/04 02:38:09;;;;;;;;;;;;;;;5.39;87.34;95387.38;30001;983;1876;-64
2021/11/04 02:38:41;;;;;;;;;;;;;;;5.36;87.33;95385.25;30001;982;1875;-65
2021/11/04 02:39:12;;;;;;;;;;;;;;;5.36;87.48;95382.56;30001;982;1875;-66
2021/11/04 02:39:43;;;;;;;;;;;;;;;5.34;88.13;95384.75;30001;982;1858;-66
2021/11/04 02:40:15;;;;;;;;;;;;;;;5.33;87.74;95385.06;30001;982;1871;-66
2021/11/04 02:40:46;;;;;;;;;;;;;;;5.30;88.07;95383.75;30001;982;1876;-66
2021/11/04 02:41:18;;;;;;;;;;;;;;;5.30;88.18;95393.72;30001;982;1876;-66
2021/11/04 02:41:49;;;;;;;;;;;;;;;5.28;88.22;95393.22;30001;983;1875;-67
2021/11/04 02:42:20;;;;;;;;;;;;;;;5.26;88.01;95384.63;30001;983;1875;-66
2021/11/04 02:42:51;;;;;;;;;;;;;;;5.26;88.54;95393.50;30001;983;1875;-68
2021/11/04 02:43:23;;;;;;;;;;;;;;;5.24;88.31;95384.13;30001;983;1876;-66
2021/11/04 02:43:54;;;;;;;;;;;;;;;5.22;88.32;95395.19;30001;983;1875;-67
2021/11/04 02:44:26;;;;;;;;;;;;;;;5.22;88.27;95386.31;30001;983;1876;-67
2021/11/04 02:44:57;;;;;;;;;;;;;;;5.22;88.29;95392.50;30001;983;1858;-67
2021/11/04 02:45:28;;;;;;;;;;;;;;;5.23;88.55;95394.09;30001;983;1871;-67
2021/11/04 02:46:00;;;;;;;;;;;;;;;5.20;88.98;95394.69;30001;982;1876;-67
2021/11/04 02:46:31;;;;;;;;;;;;;;;5.21;88.55;95396.28;30001;982;1876;-67
2021/11/04 02:47:03;;;;;;;;;;;;;;;5.21;88.74;95396.28;30001;982;1875;-66
2021/11/04 02:47:37;;;;;;;;;;;;;;;5.20;89.01;95394.69;30001;982;1875;-67
2021/11/04 02:48:09;;;;;;;;;;;;;;;5.18;89.30;95396.87;30001;982;1876;-67
2021/11/04 02:48:41;;;;;;;;;;;;;;;5.19;89.12;95408.44;30001;982;1876;-69
2021/11/04 02:49:12;;;;;;;;;;;;;;;5.17;89.15;95400.66;30001;982;1877;-67
2021/11/04 02:49:45;;;;;;;;;;;;;;;5.18;89.05;95401.47;30001;983;1858;-68
2021/11/04 02:50:17;;;;;;;;;;;;;;;5.16;89.11;95399.06;30001;983;1871;-67
2021/11/04 02:50:49;;;;;;;;;;;;;;;5.15;88.96;95400.16;30001;983;1875;-68
2021/11/04 02:51:21;;;;;;;;;;;;;;;5.15;89.19;95402.84;30001;983;1858;-67
2021/11/04 02:51:52;;;;;;;;;;;;;;;5.13;89.27;95394.28;30001;983;1871;-69
2021/11/04 02:52:23;;;;;;;;;;;;;;;5.12;89.52;95398.06;30001;983;1876;-68
2021/11/04 02:52:55;;;;;;;;;;;;;;;5.11;89.23;95391.09;30001;983;1875;-67
2021/11/04 02:53:28;;;;;;;;;;;;;;;5.11;89.34;95396.47;30001;983;1876;-67
2021/11/04 02:53:59;;;;;;;;;;;;;;;5.11;89.25;95388.41;30001;982;1876;-68
2021/11/04 02:54:31;;;;;;;;;;;;;;;5.11;89.66;95390.28;30001;982;1876;-67
2021/11/04 02:55:03;;;;;;;;;;;;;;;5.10;89.49;95386.81;30001;982;1876;-68